M/V Crosby Hustler — WDA3941 — position and weather

sailwx.info

Track history (hours):
 
Tides and Currents Weather Stations Pressure Air Temp Water Temp Dewpoint Dewpoint Depression Visibility Wind Speed Wind Dir Waves Ship Positions

M/V Crosby Hustler

Owner: CROSBY INLAND MARINE LLC, GOLDEN MEADOW, LA. More information available from US FCC via Universal Licensing System and Coast Guard Vessel Documentation Center.

Last reported at 2014-Oct-31 04:21 UTC. Time now 2014-Oct-31 05:47 UTC.
Position N 29°47' W 095°06'.

Length 18 m; draft 9 m.

Type: Tug. MMSI: 366804030.

Date/timePositionNaut miles runAvg speedWind from/ knotsBaromVisibWave heightAir tempDewpointWater temp
2014-Oct-31 04:21N 29°47' W 095°06'0 0.0
2014-Oct-31 03:27N 29°47' W 095°06'0 0.0
2014-Oct-31 02:18N 29°47' W 095°06'0 0.0
2014-Oct-31 00:18N 29°47' W 095°06'0 0.0
2014-Oct-30 22:15N 29°47' W 095°06'1 0.0
2014-Oct-30 01:26N 29°46' W 095°06'4 5.0
2014-Oct-30 00:33N 29°44' W 095°01'5 5.1
2014-Oct-29 23:33N 29°39' W 094°58'6 6.0
2014-Oct-29 22:33N 29°34' W 094°55'6 5.9
2014-Oct-29 21:33N 29°29' W 094°52'6 5.5
2014-Oct-29 20:29N 29°24' W 094°49'  
2014-Oct-27 03:25N 29°29' W 094°52'5 5.8
2014-Oct-27 02:33N 29°33' W 094°55'6 6.1
2014-Oct-27 01:33N 29°38' W 094°58'6 5.8
2014-Oct-27 00:33N 29°43' W 095°01'5 4.7
2014-Oct-26 23:33N 29°47' W 095°04'0 0.0
2014-Oct-26 22:28N 29°48' W 095°04'0 0.0
2014-Oct-26 21:31N 29°48' W 095°04'0 0.0
2014-Oct-26 20:28N 29°48' W 095°04'0 0.0
2014-Oct-26 19:28N 29°48' W 095°04'0 0.0
2014-Oct-26 18:28N 29°48' W 095°04'0 0.0
2014-Oct-26 17:31N 29°48' W 095°04'0 0.0
2014-Oct-26 16:22N 29°48' W 095°04'0 0.0
2014-Oct-26 15:31N 29°48' W 095°04'0 0.0
2014-Oct-26 14:31N 29°48' W 095°04'0 0.0
2014-Oct-26 13:31N 29°48' W 095°04'0 0.0
2014-Oct-26 12:31N 29°48' W 095°04'1 0.1
2014-Oct-26 06:18N 29°47' W 095°04'4 5.2
2014-Oct-26 05:29N 29°44' W 095°08'4 4.7
2014-Oct-26 04:32N 29°43' W 095°13'1 0.1
2014-Oct-25 12:26N 29°43' W 095°15'2 2.4
2014-Oct-25 11:33N 29°44' W 095°12'5 5.4
2014-Oct-25 10:33N 29°45' W 095°06'2 0.5
2014-Oct-25 06:22N 29°47' W 095°06'0 0.0
2014-Oct-24 06:31N 29°47' W 095°06'0 0.0
2014-Oct-24 00:13N 29°47' W 095°06'1 0.6
2014-Oct-23 23:23N 29°46' W 095°06'0 0.0
2014-Oct-23 22:17N 29°46' W 095°06'0 0.0
2014-Oct-23 21:20N 29°46' W 095°06'0 0.0
2014-Oct-23 00:25N 29°46' W 095°06'0 0.0
2014-Oct-22 21:13N 29°46' W 095°06'1 1.6
2014-Oct-22 20:33N 29°46' W 095°05'5 5.2
2014-Oct-22 19:34N 29°42' W 095°01'5 5.4
2014-Oct-22 18:33N 29°38' W 094°58'6 5.8
2014-Oct-22 17:34N 29°33' W 094°54'6 5.5
2014-Oct-22 16:33N 29°28' W 094°51'  
Track history (hours):
 
Tides and Currents Weather Stations Pressure Air Temp Water Temp Dewpoint Dewpoint Depression Visibility Wind Speed Wind Dir Waves Ship Positions

M/V Crosby Hustler

Owner: CROSBY INLAND MARINE LLC, GOLDEN MEADOW, LA. More information available from US FCC via Universal Licensing System and Coast Guard Vessel Documentation Center.

Last reported at 2014-Oct-31 04:21 UTC. Time now 2014-Oct-31 05:47 UTC.
Position N 29°47' W 095°06'.

Length 18 m; draft 9 m.

Type: Tug. MMSI: 366804030.

Date/timePositionNaut miles runAvg speedWind from/ knotsBaromVisibWave heightAir tempDewpointWater temp
2014-Oct-31 04:21N 29°47' W 095°06'0 0.0
2014-Oct-31 03:27N 29°47' W 095°06'0 0.0
2014-Oct-31 02:18N 29°47' W 095°06'0 0.0
2014-Oct-31 00:18N 29°47' W 095°06'0 0.0
2014-Oct-30 22:15N 29°47' W 095°06'1 0.0
2014-Oct-30 01:26N 29°46' W 095°06'4 5.0
2014-Oct-30 00:33N 29°44' W 095°01'5 5.1
2014-Oct-29 23:33N 29°39' W 094°58'6 6.0
2014-Oct-29 22:33N 29°34' W 094°55'6 5.9
2014-Oct-29 21:33N 29°29' W 094°52'6 5.5
2014-Oct-29 20:29N 29°24' W 094°49'  
2014-Oct-27 03:25N 29°29' W 094°52'5 5.8
2014-Oct-27 02:33N 29°33' W 094°55'6 6.1
2014-Oct-27 01:33N 29°38' W 094°58'6 5.8
2014-Oct-27 00:33N 29°43' W 095°01'5 4.7
2014-Oct-26 23:33N 29°47' W 095°04'0 0.0
2014-Oct-26 22:28N 29°48' W 095°04'0 0.0
2014-Oct-26 21:31N 29°48' W 095°04'0 0.0
2014-Oct-26 20:28N 29°48' W 095°04'0 0.0
2014-Oct-26 19:28N 29°48' W 095°04'0 0.0
2014-Oct-26 18:28N 29°48' W 095°04'0 0.0
2014-Oct-26 17:31N 29°48' W 095°04'0 0.0
2014-Oct-26 16:22N 29°48' W 095°04'0 0.0
2014-Oct-26 15:31N 29°48' W 095°04'0 0.0
2014-Oct-26 14:31N 29°48' W 095°04'0 0.0
2014-Oct-26 13:31N 29°48' W 095°04'0 0.0
2014-Oct-26 12:31N 29°48' W 095°04'1 0.1
2014-Oct-26 06:18N 29°47' W 095°04'4 5.2
2014-Oct-26 05:29N 29°44' W 095°08'4 4.7
2014-Oct-26 04:32N 29°43' W 095°13'1 0.1
2014-Oct-25 12:26N 29°43' W 095°15'2 2.4
2014-Oct-25 11:33N 29°44' W 095°12'5 5.4
2014-Oct-25 10:33N 29°45' W 095°06'2 0.5
2014-Oct-25 06:22N 29°47' W 095°06'0 0.0
2014-Oct-24 06:31N 29°47' W 095°06'0 0.0
2014-Oct-24 00:13N 29°47' W 095°06'1 0.6
2014-Oct-23 23:23N 29°46' W 095°06'0 0.0
2014-Oct-23 22:17N 29°46' W 095°06'0 0.0
2014-Oct-23 21:20N 29°46' W 095°06'0 0.0
2014-Oct-23 00:25N 29°46' W 095°06'0 0.0
2014-Oct-22 21:13N 29°46' W 095°06'1 1.6
2014-Oct-22 20:33N 29°46' W 095°05'5 5.2
2014-Oct-22 19:34N 29°42' W 095°01'5 5.4
2014-Oct-22 18:33N 29°38' W 094°58'6 5.8
2014-Oct-22 17:34N 29°33' W 094°54'6 5.5
2014-Oct-22 16:33N 29°28' W 094°51'  

Dump ship's entire track history